Montreal-Nord, Canada
Current Conditions -  °F | °C
As of 9:00 AM on Friday 31 Oct 2014 (Local Time) from CYUL Reporting Station
Overcast Overcast  
Wind Chill: 33°   Ceiling: 24000
Heat Index: 39°   Visibility: 30mi
Dew Point: 27°   Wind: 9mph
Humidity: 61%   Direction: 30°NNE
Pressure: 30.09"   Gusts: NA
Location:  45.6°N, 73.62°W
Report Text: CYUL 311300Z 03008KT 30SM FEW040 FEW120 OVC240 04/M03 A3009 RMK SC1AC1CI7 AC TR SLP189
Loading
Personal Weather Stations






























Interactive Weather Map
Tropical Storm Tracking
New forecast layout! Learn more

10-Day Weather Forecast

Advertisements
Track Severe Weather on mobile